world map with FQVL marked

FQVL - Airport

This information may not be accurate or current and is not valid for navigation or flight planning. No warranty of fitness for any purpose is made or implied.

flag of Mozambique

Donate via PayPal

Additional information is available on the NEW Great Circle Mapper

Location
City:  Vilankulo, Inhambane, Mozambique
Near (Alt.):Vilanculos
Name:Vilankulo Airport (Vilanculos Airport)
ICAO / IATA:FQVL / VNX

Details
Type:Airport (Aerodrome, Airfield)
Use:Public/Civil
Latitude:22°01'06"S (-22.018430)
Longitude:35°18'48"E (35.313297)
Datum:WGS 1984
Elevation:46 ft (14 m)
Runways:2
Longest:4823 × 98 ft (1470 × 30 m)

Time
Timezone:UTC+2 (DST+4)
Local Time:

Weather
METAR:FQVL  190500Z 19007KT 9999 FEW020 21/17 Q1017
TAF:FQVL  (expired)

Related Locations
Nearby:
Farthest:ITO: 11759 mi / 18924 km
Hilo [Hilo Intl], Hawaii, HI, US

Find:

   beyond  
but within

Other Information
Maps:
Sources:

  


 


Great Circle Mapper   Great Circle Mapper
Great Circle Mapper FAQ   Great Circle Mapper FAQ
  Karl's Home Page
KLSē   KLSē Home
   GC on Facebook
Airlines of the World   Airlines of the World
Donate via PayPal


Copyright © 2004-2018, Karl L. Swartz. All rights reserved.
All trademarks mentioned herein belong to their respective owners.

Please see credits for attribution and copyright information.

Karl Swartz <karl@kls2.com>
  Powered by FreeBSD
Valid HTML 4.01!
Labeled with ICRA
hCard Microformat
Geo Microformat